Galena, Nevada Weather observations

Data are for 10 minute period ending at time listed.
 Day   Time    Ave.   Ave.  Ave.  Vector   Max.   Total    Solar   
  of    of     Air    Rel.  Wind   Wind    Wind  Precip.   Rad.    
Year   Day     Temp.  Hum.  Speed  Dir.    Gust                    
2015   (PST)    F      %     mph   deg.    mph     in.     W/m2    
------------------------------------------------------------------- 
 239   18:00   78.0    21   14.0   256     26.0    3.05      92  
 239   19:00   74.0    26    9.0   257     23.0    3.05      23  
 239   20:00   73.0    25   10.0   253     18.0    3.05       0  
 239   21:00   71.0    26    5.0     6     17.0    3.05       0  
 239   22:00   66.0    33    4.0   345     10.0    3.05       0  
 239   23:00   64.0    35    2.0   341      6.0    3.05       0  
 240    0:00   62.0    38    4.0   299      8.0    3.05       0  
 240    1:00   60.0    42    0.0   285      5.0    3.05       0  
 240    2:00   59.0    40    3.0   270      6.0    3.05       0  
 240    3:00   58.0    41    3.0   317      6.0    3.05       0  
 240    4:00   58.0    43    5.0   314      7.0    3.05       0  
 240    5:00   58.0    45    4.0   303      6.0    3.05       0  
 240    6:00   57.0    44    2.0   320      5.0    3.05       7  
 240    7:00   67.0    37    1.0   297      4.0    3.05     134  
 240    8:00   73.0    32    2.0   123      5.0    3.05     331  
 240    9:00   75.0    25    8.0   134     13.0    3.05     529  
 240   10:00   79.0    21    9.0   150     15.0    3.05     674  
 240   11:00   83.0    13   10.0   192     20.0    3.05     841  
 240   12:00   83.0    14   12.0   226     24.0    3.05     784  
 240   13:00   82.0    15   13.0   205     24.0    3.05     731  
 240   14:00   82.0    17   15.0   213     24.0    3.05     588  
 240   15:00   81.0    20   15.0   213     25.0    3.05     417  
 240   16:00   81.0    20   11.0   240     23.0    3.05     272  
 240   17:00   79.0    21   12.0   242     25.0    3.05     267  

Return to Galena, Nevada graphs page.


Western Regional Climate Center,wrcc@dri.edu